createdAt,value
2022-11-28T00:01:26.477Z,1.00
2022-11-28T00:03:54.664Z,1.00
2022-11-28T00:06:22.883Z,1.00
2022-11-28T00:08:50.905Z,1.00
2022-11-28T00:11:18.878Z,1.00
2022-11-28T00:13:47.521Z,1.00
2022-11-28T00:16:21.300Z,1.00
2022-11-28T00:18:49.416Z,1.00
2022-11-28T00:21:17.891Z,1.00
2022-11-28T00:23:46.999Z,1.00
2022-11-28T00:26:19.137Z,1.00
2022-11-28T00:28:47.042Z,1.00
2022-11-28T00:31:18.544Z,1.00
2022-11-28T00:33:46.698Z,1.00
2022-11-28T00:36:14.913Z,1.00
2022-11-28T00:38:42.764Z,1.00
2022-11-28T00:41:13.937Z,1.00
2022-11-28T00:43:42.410Z,1.00
2022-11-28T00:46:10.922Z,1.00
2022-11-28T00:48:40.537Z,1.00
2022-11-28T00:51:09.912Z,1.00
2022-11-28T00:53:40.391Z,1.00
2022-11-28T00:56:09.634Z,1.00
2022-11-28T00:58:38.507Z,1.00
2022-11-28T05:02:22.295Z,1.00
2022-11-28T05:07:24.064Z,1.00
2022-11-28T05:09:52.607Z,1.00
2022-11-28T05:12:20.364Z,1.00
2022-11-28T05:17:16.201Z,1.00
2022-11-28T05:19:45.335Z,1.00
2022-11-28T05:22:13.056Z,1.00
2022-11-28T05:24:40.880Z,1.00
2022-11-28T05:27:08.718Z,1.00
2022-11-28T05:32:05.359Z,1.00
2022-11-28T05:34:33.149Z,1.00
2022-11-28T05:37:02.245Z,1.00
2022-11-28T05:39:29.992Z,1.00
2022-11-28T05:41:58.321Z,1.00
2022-11-28T05:44:27.207Z,1.00
2022-11-28T05:46:55.176Z,1.00
2022-11-28T05:49:23.823Z,1.00
2022-11-28T05:56:49.250Z,1.00
2022-11-28T05:59:17.016Z,1.00
2022-11-28T06:01:44.913Z,1.00
2022-11-28T06:04:12.944Z,1.00
2022-11-28T06:06:40.827Z,1.00
2022-11-28T06:09:08.832Z,1.00
2022-11-28T06:11:37.956Z,1.00
2022-11-28T06:14:05.830Z,1.00
2022-11-28T06:16:33.628Z,1.00
2022-11-28T06:19:03.113Z,1.00
2022-11-28T06:21:31.376Z,1.00
2022-11-28T06:24:00.358Z,1.00
2022-11-28T06:26:29.353Z,1.00
2022-11-28T06:28:58.581Z,1.00
2022-11-28T06:31:28.392Z,1.00
2022-11-28T06:33:56.687Z,1.00
2022-11-28T06:36:26.107Z,1.00
2022-11-28T06:38:54.162Z,1.00
2022-11-28T06:41:22.767Z,1.00
2022-11-28T06:43:50.602Z,1.00
2022-11-28T06:46:21.465Z,1.00
2022-11-28T06:48:51.191Z,1.00
2022-11-28T06:51:19.913Z,1.00
2022-11-28T06:53:47.680Z,1.00
2022-11-28T06:56:17.592Z,1.00
2022-11-28T06:58:46.551Z,1.00
2022-11-28T07:01:16.788Z,1.00
2022-11-28T07:03:46.760Z,1.00
2022-11-28T07:06:16.393Z,1.00
2022-11-28T07:08:44.700Z,1.00
2022-11-28T07:11:14.554Z,1.00
2022-11-28T07:13:43.092Z,1.00
2022-11-28T07:16:16.546Z,1.00
2022-11-28T07:18:46.455Z,1.00
2022-11-28T07:21:14.876Z,1.00
2022-11-28T07:23:43.320Z,1.00
2022-11-28T07:26:12.731Z,1.00
2022-11-28T07:28:41.410Z,1.00
2022-11-28T07:31:11.839Z,1.00
2022-11-28T07:33:41.129Z,1.00
2022-11-28T07:36:13.864Z,1.00
2022-11-28T07:41:11.925Z,1.00
2022-11-28T07:43:40.168Z,1.00
2022-11-28T07:46:09.532Z,1.00
2022-11-28T07:48:37.500Z,1.00
2022-11-28T07:51:07.211Z,1.00
2022-11-28T07:53:36.852Z,1.00
2022-11-28T07:56:05.206Z,1.00
2022-11-28T07:58:33.207Z,1.00
2022-11-28T08:01:01.013Z,1.00
2022-11-28T08:03:28.728Z,1.00
2022-11-28T08:06:02.821Z,1.00
2022-11-28T08:08:31.244Z,1.00
2022-11-28T08:11:02.648Z,1.00
2022-11-28T08:13:30.974Z,1.00
2022-11-28T08:15:58.830Z,1.00
2022-11-28T08:18:26.664Z,1.00
2022-11-28T08:20:54.466Z,1.00
2022-11-28T08:23:31.705Z,1.00
2022-11-28T08:26:01.548Z,1.00
2022-11-28T08:28:29.477Z,1.00
2022-11-28T08:30:57.422Z,1.00
2022-11-28T08:33:25.204Z,1.00
2022-11-28T08:35:53.266Z,1.00
2022-11-28T08:38:21.133Z,1.00
2022-11-28T08:40:48.911Z,1.00
2022-11-28T08:43:17.996Z,1.00
2022-11-28T08:45:46.325Z,1.00
2022-11-28T08:48:14.145Z,1.00
2022-11-28T08:50:48.208Z,1.00
2022-11-28T08:53:18.581Z,1.00
2022-11-28T08:55:46.740Z,1.00
2022-11-28T08:58:15.329Z,1.00
2022-11-28T09:00:44.671Z,1.00
2022-11-28T09:03:15.880Z,1.00
2022-11-28T09:05:45.360Z,1.00
2022-11-28T09:08:13.337Z,1.00
2022-11-28T09:10:41.989Z,1.00
2022-11-28T09:13:10.127Z,1.00
2022-11-28T09:15:40.713Z,1.00
2022-11-28T09:18:10.137Z,1.00
2022-11-28T09:20:37.857Z,1.00
2022-11-28T09:23:05.640Z,1.00
2022-11-28T09:25:35.805Z,1.00
2022-11-28T09:28:03.615Z,1.00
2022-11-28T09:30:31.568Z,1.00
2022-11-28T09:33:01.003Z,1.00
2022-11-28T09:35:30.060Z,1.00
2022-11-28T09:37:58.893Z,1.00
2022-11-28T09:40:32.357Z,1.00
2022-11-28T09:43:03.772Z,1.00
2022-11-28T09:45:33.107Z,1.00
2022-11-28T09:48:08.138Z,1.00
2022-11-28T09:50:40.970Z,1.00
2022-11-28T09:53:19.061Z,1.00
2022-11-28T09:55:50.931Z,1.00
2022-11-28T09:58:25.765Z,1.00
2022-11-28T10:01:01.293Z,1.00
2022-11-28T10:03:40.835Z,1.00
2022-11-28T10:06:18.463Z,1.00
2022-11-28T10:09:03.866Z,1.00
2022-11-28T10:11:42.141Z,1.00
2022-11-28T10:14:31.428Z,1.00
2022-11-28T10:17:05.526Z,1.00
2022-11-28T10:20:02.955Z,1.00
2022-11-28T10:22:35.928Z,1.00
2022-11-28T10:25:11.257Z,1.00
2022-11-28T10:27:42.460Z,1.00
2022-11-28T10:30:21.131Z,1.00
2022-11-28T10:32:57.131Z,1.00
2022-11-28T10:35:31.462Z,1.00
2022-11-28T10:38:00.704Z,1.00
2022-11-28T10:40:38.045Z,1.00
2022-11-28T10:43:13.334Z,1.00
2022-11-28T10:45:52.498Z,1.00
2022-11-28T10:48:40.325Z,1.00
2022-11-28T10:51:24.550Z,1.00
2022-11-28T10:54:03.290Z,1.00
2022-11-28T10:56:38.452Z,1.00
2022-11-28T10:59:13.076Z,1.00
2022-11-28T11:01:44.736Z,1.00
2022-11-28T11:04:20.716Z,1.00
2022-11-28T11:07:09.976Z,1.00
2022-11-28T11:09:40.848Z,1.00
2022-11-28T11:12:20.121Z,1.00
2022-11-28T11:17:31.357Z,1.00
2022-11-28T11:20:03.327Z,1.00
2022-11-28T11:22:32.454Z,1.00
2022-11-28T11:25:14.259Z,1.00
2022-11-28T11:28:18.756Z,1.00
2022-11-28T11:33:24.305Z,1.00
2022-11-28T11:35:59.507Z,1.00
2022-11-28T11:38:44.680Z,1.00
2022-11-28T11:41:30.445Z,1.00
2022-11-28T11:44:16.759Z,1.00
2022-11-28T11:49:30.481Z,1.00
2022-11-28T11:57:24.909Z,1.00
2022-11-28T11:59:51.570Z,1.00
2022-11-28T12:02:25.923Z,1.00
2022-11-28T12:05:02.756Z,1.00
2022-11-28T12:07:37.568Z,1.00
2022-11-28T12:10:07.758Z,1.00
2022-11-28T12:12:38.455Z,1.00
2022-11-28T12:15:16.625Z,1.00
2022-11-28T12:17:59.028Z,1.00
2022-11-28T12:20:41.586Z,1.00
2022-11-28T12:23:23.339Z,1.00
2022-11-28T12:25:56.126Z,1.00
2022-11-28T12:28:39.625Z,1.00
2022-11-28T12:31:16.290Z,1.00
2022-11-28T12:33:57.054Z,1.00
2022-11-28T12:36:30.469Z,1.00
2022-11-28T12:39:05.072Z,1.00
2022-11-28T12:41:59.852Z,1.00
2022-11-28T12:44:41.225Z,1.00
2022-11-28T12:47:16.845Z,1.00
2022-11-28T12:49:54.544Z,1.00
2022-11-28T12:52:32.827Z,1.00
2022-11-28T12:55:20.493Z,1.00
2022-11-28T12:57:54.463Z,1.00
2022-11-28T13:00:27.487Z,1.00
2022-11-28T13:03:08.823Z,1.00
2022-11-28T13:05:55.188Z,1.00
2022-11-28T13:08:40.789Z,1.00
2022-11-28T13:11:23.061Z,1.00
2022-11-28T13:13:56.342Z,1.00
2022-11-28T13:16:32.886Z,1.00
2022-11-28T13:19:10.862Z,1.00
2022-11-28T13:21:46.181Z,1.00
2022-11-28T13:24:29.436Z,1.00
2022-11-28T13:27:03.064Z,1.00
2022-11-28T13:29:38.866Z,1.00
2022-11-28T13:32:14.300Z,1.00
2022-11-28T13:34:42.871Z,1.00
2022-11-28T13:40:17.828Z,7.00
2022-11-28T13:43:06.384Z,9.50
2022-11-28T13:45:39.282Z,19.70
2022-11-28T13:49:13.782Z,23.50
2022-11-28T13:54:46.246Z,30.50
2022-11-28T13:57:22.694Z,34.50
2022-11-28T13:59:56.699Z,38.90
2022-11-28T14:02:38.236Z,42.90
2022-11-28T14:10:39.572Z,47.70
2022-11-28T14:13:59.390Z,48.00
2022-11-28T14:16:52.212Z,50.20
2022-11-28T14:19:32.064Z,53.20
2022-11-28T14:22:14.780Z,54.70
2022-11-28T14:25:02.699Z,58.00
2022-11-28T14:27:34.238Z,59.90
2022-11-28T14:30:02.764Z,60.60
2022-11-28T14:32:36.894Z,61.60
2022-11-28T14:35:06.592Z,70.70
2022-11-28T14:37:50.382Z,74.80
2022-11-28T14:41:09.009Z,81.90
2022-11-28T14:43:43.827Z,86.70
2022-11-28T14:46:32.697Z,90.20
2022-11-28T14:49:21.967Z,88.40
2022-11-28T14:52:41.464Z,90.10
2022-11-28T14:55:19.174Z,88.80
2022-11-28T14:57:59.076Z,86.70
2022-11-28T15:00:31.745Z,83.50
2022-11-28T15:03:15.563Z,83.60
2022-11-28T15:05:47.171Z,80.80
2022-11-28T15:08:33.845Z,81.00
2022-11-28T15:11:20.213Z,80.50
2022-11-28T15:14:05.957Z,80.70
2022-11-28T15:16:37.375Z,74.90
2022-11-28T15:19:09.479Z,73.50
2022-11-28T15:21:45.794Z,65.00
2022-11-28T15:24:23.935Z,56.90
2022-11-28T15:26:57.197Z,52.90
2022-11-28T15:29:27.620Z,50.20
2022-11-28T15:31:58.775Z,47.70
2022-11-28T15:34:29.846Z,47.70
2022-11-28T15:37:00.692Z,45.00
2022-11-28T15:39:34.764Z,44.40
2022-11-28T15:42:04.862Z,49.70
2022-11-28T15:44:33.136Z,41.90
2022-11-28T15:47:02.604Z,42.10
2022-11-28T15:49:32.502Z,40.60
2022-11-28T15:52:02.754Z,38.70
2022-11-28T15:54:36.425Z,38.30
2022-11-28T15:57:05.904Z,36.40
2022-11-28T15:59:34.070Z,31.80
2022-11-28T16:02:12.306Z,31.80
2022-11-28T16:04:40.802Z,33.40
2022-11-28T16:07:15.647Z,33.80
2022-11-28T16:09:55.707Z,33.90
2022-11-28T16:12:24.213Z,34.50
2022-11-28T16:17:29.723Z,35.20
2022-11-28T16:22:33.647Z,35.00
2022-11-28T16:25:14.659Z,34.40
2022-11-28T16:27:45.492Z,32.40
2022-11-28T16:32:57.791Z,35.00
2022-11-28T16:35:28.832Z,36.00
2022-11-28T16:38:05.973Z,38.00
2022-11-28T16:43:06.239Z,44.40
2022-11-28T16:45:35.009Z,45.90
2022-11-28T16:48:11.261Z,46.50
2022-11-28T16:50:39.525Z,46.20
2022-11-28T16:53:07.622Z,51.30
2022-11-28T16:55:46.114Z,52.30
2022-11-28T16:58:23.152Z,53.60
2022-11-28T17:00:59.343Z,59.50
2022-11-28T17:03:58.977Z,55.60
2022-11-28T17:06:33.768Z,58.50
2022-11-28T17:09:02.569Z,58.90
2022-11-28T17:11:32.803Z,65.70
2022-11-28T17:14:02.737Z,65.40
2022-11-28T17:16:33.547Z,74.80
2022-11-28T17:21:37.953Z,75.10
2022-11-28T17:24:07.411Z,77.60
2022-11-28T17:29:03.317Z,75.00
2022-11-28T17:31:31.201Z,81.80
2022-11-28T17:33:59.038Z,81.20
2022-11-28T17:36:28.163Z,80.20
2022-11-28T17:38:58.800Z,71.20
2022-11-28T17:41:30.299Z,68.50
2022-11-28T17:43:58.178Z,74.90
2022-11-28T17:46:26.020Z,70.70
2022-11-28T17:48:54.557Z,70.80
2022-11-28T17:51:22.388Z,81.00
2022-11-28T17:53:51.679Z,81.20
2022-11-28T17:56:19.690Z,81.40
2022-11-28T17:58:47.556Z,75.00
2022-11-28T18:01:19.973Z,75.00
2022-11-28T18:03:47.773Z,74.70
2022-11-28T18:06:17.372Z,78.80
2022-11-28T18:08:45.789Z,74.90
2022-11-28T18:11:15.894Z,82.10
2022-11-28T18:13:44.335Z,81.50
2022-11-28T18:16:12.793Z,75.10
2022-11-28T18:18:41.414Z,75.10
2022-11-28T18:21:09.694Z,83.70
2022-11-28T18:23:39.175Z,92.40
2022-11-28T18:26:09.006Z,83.90
2022-11-28T18:28:38.764Z,84.70
2022-11-28T18:31:11.510Z,84.60
2022-11-28T18:33:39.552Z,85.00
2022-11-28T18:36:12.255Z,91.40
2022-11-28T18:38:40.315Z,87.00
2022-11-28T18:41:09.467Z,90.00
2022-11-28T18:43:38.944Z,89.50
2022-11-28T18:46:07.955Z,92.20
2022-11-28T18:48:38.066Z,90.30
2022-11-28T18:51:12.711Z,89.60
2022-11-28T18:53:40.960Z,90.30
2022-11-28T18:56:09.340Z,92.80
2022-11-28T18:58:40.256Z,90.10
2022-11-28T19:01:13.027Z,89.60
2022-11-28T19:03:41.920Z,92.50
2022-11-28T19:06:12.045Z,89.40
2022-11-28T19:08:40.942Z,88.00
2022-11-28T19:11:10.485Z,86.40
2022-11-28T19:13:40.254Z,87.60
2022-11-28T19:16:09.221Z,91.70
2022-11-28T19:18:37.869Z,90.00
2022-11-28T19:21:05.995Z,91.90
2022-11-28T19:23:34.251Z,92.70
2022-11-28T19:26:03.023Z,92.80
2022-11-28T19:31:07.156Z,92.70
2022-11-28T19:36:03.410Z,92.90
2022-11-28T19:38:31.544Z,92.40
2022-11-28T19:40:59.512Z,93.10
2022-11-28T19:43:27.336Z,93.60
2022-11-28T19:48:40.936Z,92.10
2022-11-28T19:51:10.237Z,92.10
2022-11-28T19:56:14.928Z,87.40
2022-11-28T19:58:43.964Z,87.20
2022-11-28T20:01:13.755Z,91.80
2022-11-28T20:03:43.900Z,87.50
2022-11-28T20:06:14.028Z,88.50
2022-11-28T20:08:47.473Z,88.90
2022-11-28T20:11:17.077Z,88.50
2022-11-28T20:13:45.619Z,87.30
2022-11-28T20:16:16.219Z,87.80
2022-11-28T20:18:46.226Z,86.60
2022-11-28T20:21:19.766Z,86.40
2022-11-28T20:23:49.588Z,86.20
2022-11-28T20:26:18.510Z,90.30
2022-11-28T20:28:46.886Z,80.60
2022-11-28T20:31:20.170Z,80.20
2022-11-28T20:33:49.935Z,79.80
2022-11-28T20:36:23.795Z,79.60
2022-11-28T20:38:52.800Z,75.00
2022-11-28T20:41:21.935Z,74.40
2022-11-28T20:43:49.839Z,78.20
2022-11-28T20:46:19.320Z,76.90
2022-11-28T20:48:50.179Z,71.30
2022-11-28T20:51:19.631Z,71.10
2022-11-28T20:53:47.531Z,69.40
2022-11-28T20:56:17.251Z,73.40
2022-11-28T20:58:45.434Z,67.40
2022-11-28T21:01:15.567Z,75.40
2022-11-28T21:03:43.566Z,78.60
2022-11-28T21:08:41.318Z,75.00
2022-11-28T21:11:10.796Z,81.80
2022-11-28T21:13:39.150Z,77.10
2022-11-28T21:16:08.699Z,82.60
2022-11-28T21:18:37.992Z,78.90
2022-11-28T21:21:09.019Z,86.40
2022-11-28T21:26:08.834Z,85.00
2022-11-28T21:28:38.017Z,89.20
2022-11-28T21:31:07.407Z,90.10
2022-11-28T21:33:35.336Z,90.90
2022-11-28T21:36:03.730Z,92.70
2022-11-28T21:38:32.613Z,94.00
2022-11-28T21:41:01.846Z,98.30
2022-11-28T21:43:30.151Z,95.20
2022-11-28T21:46:03.384Z,95.80
2022-11-28T21:48:32.306Z,96.70
2022-11-28T21:51:00.955Z,99.90
2022-11-28T21:53:29.904Z,99.90
2022-11-28T21:56:00.080Z,99.90
2022-11-28T21:58:30.675Z,99.90
2022-11-28T22:00:59.003Z,99.90
2022-11-28T22:03:27.309Z,99.90
2022-11-28T22:08:29.122Z,99.90
2022-11-28T22:11:00.892Z,99.90
2022-11-28T22:15:58.643Z,99.90
2022-11-28T22:18:26.558Z,99.90
2022-11-28T22:21:02.105Z,99.90
2022-11-28T22:23:30.143Z,99.90
2022-11-28T22:25:57.880Z,99.90
2022-11-28T22:28:25.631Z,99.90
2022-11-28T22:30:54.726Z,99.90
2022-11-28T22:33:22.535Z,99.90
2022-11-28T22:35:50.254Z,99.90
2022-11-28T22:40:46.402Z,99.90
2022-11-28T22:43:14.183Z,99.90
2022-11-28T22:48:11.907Z,99.90
2022-11-28T22:50:40.965Z,99.90
2022-11-28T22:53:08.749Z,99.90
2022-11-28T22:55:36.799Z,99.90
2022-11-28T22:58:04.542Z,99.90
2022-11-28T23:00:32.526Z,99.90
2022-11-28T23:03:00.409Z,99.90
2022-11-28T23:05:29.673Z,99.90
2022-11-28T23:07:57.578Z,99.90
2022-11-28T23:10:25.463Z,99.90
2022-11-28T23:12:53.212Z,99.90
2022-11-28T23:15:21.400Z,99.90
2022-11-28T23:17:49.178Z,99.90
2022-11-28T23:20:18.067Z,99.90
2022-11-28T23:22:47.357Z,99.90
2022-11-28T23:25:15.381Z,99.90
2022-11-28T23:27:43.180Z,99.90
2022-11-28T23:30:11.555Z,99.90
2022-11-28T23:32:39.342Z,99.90
2022-11-28T23:35:07.707Z,99.90
2022-11-28T23:37:39.129Z,99.90
2022-11-28T23:40:09.608Z,99.90
2022-11-28T23:42:37.385Z,99.90
2022-11-28T23:45:05.979Z,99.90
2022-11-28T23:47:33.756Z,99.90
2022-11-28T23:50:01.885Z,99.90
2022-11-28T23:52:29.867Z,99.90
2022-11-28T23:54:57.634Z,99.90
2022-11-28T23:57:26.781Z,99.90
2022-11-28T23:59:54.620Z,99.90
